»·PEaware :: N58EU KEMT-KSNA

N58EU :: KEMT-KSNA

FLIGHT INFORMATION

Flight Status: Arrived
Operator: Privately registered:
United States
More flights under this callsign
Pilot: Alex C. (14758)
Aircraft: BEECH AIRCRAFT BARON
(BE58)
More flights by this aircraft type
Origin: KEMT El Monte
United States
Destination: KSNA John Wayne-Orange Co
United States
More flights between these airports :: More routes between these airports
Route: +PDZ PDZ270R V363 POXKU V8 SLI
File this flight plan on PilotEdge
Remarks: IFR KEMT / KSNA45,000 / / g
Altitude:
(Current/Filed)
4,000ft
Speed:
(Current/Filed)
190kts
Departed: 05-Dec-17 06:31 PM
Arrived: 05-Dec-17 07:03 PM
Distance/Time
Traveled:
26nm/0:31
Distance/Time
To Go:
Arrived

Flight Plot

Page will automatically refresh every two minutes.


Map Options




Map Legend


Flown Route
Filed Route
Departure Airport
Arrival Airport
Navaid (VOR, NDB)
Fix

Horizontal Profiles

Position Reports

Time Latitude Longitude Heading Altitude Ground
Speed
05-Dec-17 18:16 34.086046 -118.033308 25 298ft 0kts
05-Dec-17 18:17 34.086046 -118.033308 25 298ft 0kts
05-Dec-17 18:18 34.086046 -118.033308 25 298ft 0kts
05-Dec-17 18:19 34.086046 -118.033308 24 298ft 0kts
05-Dec-17 18:20 34.086046 -118.033308 25 298ft 0kts
05-Dec-17 18:21 34.086046 -118.033308 25 298ft 0kts
05-Dec-17 18:22 34.086046 -118.033308 24 298ft 0kts
05-Dec-17 18:23 34.086046 -118.033308 24 298ft 0kts
05-Dec-17 18:24 34.086046 -118.033308 24 298ft 0kts
05-Dec-17 18:25 34.086070 -118.033288 41 298ft 3kts
05-Dec-17 18:26 34.085372 -118.033674 308 298ft 0kts
05-Dec-17 18:27 34.085372 -118.033674 308 298ft 0kts
05-Dec-17 18:28 34.085372 -118.033674 308 298ft 0kts
05-Dec-17 18:29 34.085372 -118.033674 308 298ft 0kts
05-Dec-17 18:30 34.085372 -118.033674 308 298ft 0kts
05-Dec-17 18:31 34.085372 -118.033674 308 298ft 0kts
05-Dec-17 18:32 34.085487 -118.033851 310 298ft 6kts
05-Dec-17 18:33 34.087819 -118.033202 28 298ft 11kts
05-Dec-17 18:34 34.090677 -118.031560 2 298ft 4kts
05-Dec-17 18:35 34.090739 -118.031602 300 298ft 0kts
05-Dec-17 18:36 34.083017 -118.036770 206 325ft 133kts
05-Dec-17 18:37 34.059613 -118.050472 201 1538ft 133kts
05-Dec-17 18:38 34.040165 -118.042290 88 3043ft 109kts
05-Dec-17 18:39 34.041230 -118.015831 79 4155ft 128kts
05-Dec-17 18:40 34.044242 -117.979784 80 4155ft 168kts
05-Dec-17 18:41 34.047831 -117.939546 80 4003ft 180kts
05-Dec-17 18:42 34.047663 -117.897552 109 4001ft 185kts
05-Dec-17 18:43 34.036473 -117.866092 108 3988ft 185kts
05-Dec-17 18:44 34.026160 -117.836475 110 3984ft 186kts
05-Dec-17 18:45 34.009397 -117.808791 163 3993ft 196kts
05-Dec-17 18:46 33.973750 -117.818306 196 3990ft 201kts
05-Dec-17 18:47 33.935642 -117.833016 196 3980ft 202kts
05-Dec-17 18:48 33.899264 -117.847370 196 3974ft 203kts
05-Dec-17 18:49 33.862570 -117.862209 195 3975ft 203kts
05-Dec-17 18:50 33.825635 -117.877524 195 3985ft 204kts
05-Dec-17 18:51 33.786865 -117.894146 196 3990ft 204kts
05-Dec-17 18:52 33.748106 -117.911170 195 3994ft 205kts
05-Dec-17 18:53 33.709715 -117.928180 195 3996ft 205kts
05-Dec-17 18:54 33.673334 -117.952164 206 3993ft 207kts
05-Dec-17 18:55 33.633967 -117.979633 207 3888ft 203kts
05-Dec-17 18:56 33.596913 -118.005551 207 3396ft 193kts
05-Dec-17 18:57 33.559322 -118.031676 207 2810ft 187kts
05-Dec-17 18:58 33.531491 -118.014451 112 2236ft 150kts
05-Dec-17 18:59 33.532886 -117.981590 64 1722ft 138kts
05-Dec-17 19:00 33.544961 -117.952385 55 1604ft 147kts
05-Dec-17 19:01 33.569401 -117.938401 22 1595ft 153kts
05-Dec-17 19:02 33.592667 -117.921771 43 1588ft 151kts
05-Dec-17 19:03 33.614758 -117.907246 24 1324ft 144kts
05-Dec-17 19:04 33.633857 -117.896433 32 900ft 106kts
05-Dec-17 19:05 33.647271 -117.886572 27 595ft 97kts
05-Dec-17 19:06 33.658766 -117.879733 35 304ft 88kts
05-Dec-17 19:07 33.668921 -117.873171 32 63ft 80kts
05-Dec-17 19:08 33.672030 -117.872528 250 59ft 0kts
05-Dec-17 19:09 33.671871 -117.873593 209 59ft 0kts
05-Dec-17 19:10 33.671871 -117.873593 208 59ft 0kts
05-Dec-17 19:11 33.671871 -117.873593 209 59ft 0kts
05-Dec-17 19:12 33.671871 -117.873593 209 59ft 0kts
05-Dec-17 19:13 33.671871 -117.873593 208 59ft 0kts
05-Dec-17 19:14 33.671871 -117.873593 209 59ft 0kts

Navigation Log

Ident Type
1. KEMT Airport
2. PDZ Navaid
3. POXKU Fix
4. OLLIE Fix
5. AHEIM Fix
6. SLI Navaid
7. KSNA Airport